»·PEaware :: WAT605 KSJC-KLAS

WAT605 :: KSJC-KLAS

FLIGHT INFORMATION

Flight Status: Arrived
Operator:
Walker Air Transport
More flights by this operator :: More flights under this callsign
Pilot: Kaleb W. (11686)
Aircraft: AIRBUS A320
(A320)
More flights by this aircraft type
Origin: KSJC Mineta San Jose Intl
United States
Destination: KLAS Harry Reid Intl
United States
More flights between these airports :: More routes between these airports
Route: SPTNS1 TECKY NTELL Q174 FLCHR COKTL1
File this flight plan on PilotEdge
Remarks: RMK / SIMBRIEF
Altitude:
(Current/Filed)
39,000ft
Speed:
(Current/Filed)
443kts
Departed: 02-Feb-22 04:03 PM
Arrived: 02-Feb-22 05:07 PM
Distance/Time
Traveled:
335nm/1:03
Distance/Time
To Go:
Arrived

Flight Plot

Page will automatically refresh every two minutes.

Flight plan parsing failed; only flown route is shown


Map Options




Map Legend


Flown Route
Filed Route
Departure Airport
Arrival Airport
Navaid (VOR, NDB)
Fix

Horizontal Profiles

Position Reports

Time Latitude Longitude Heading Altitude Ground
Speed
02-Feb-22 15:38 37.368562 -121.929431 47 44ft 0kts
02-Feb-22 15:39 37.368562 -121.929431 47 44ft 0kts
02-Feb-22 15:40 37.368562 -121.929431 47 44ft 0kts
02-Feb-22 15:41 37.368562 -121.929431 47 44ft 0kts
02-Feb-22 15:41 37.368562 -121.929431 47 44ft 0kts
02-Feb-22 15:43 37.368562 -121.929431 47 44ft 0kts
02-Feb-22 15:44 37.368562 -121.929431 47 44ft 0kts
02-Feb-22 15:45 37.368562 -121.929431 47 44ft 0kts
02-Feb-22 15:45 37.368562 -121.929431 47 44ft 0kts
02-Feb-22 15:46 37.368562 -121.929431 47 44ft 0kts
02-Feb-22 15:48 37.368562 -121.929431 47 44ft 0kts
02-Feb-22 15:49 37.368562 -121.929431 47 44ft 0kts
02-Feb-22 15:50 37.368562 -121.929431 47 44ft 0kts
02-Feb-22 15:50 37.368562 -121.929431 47 44ft 0kts
02-Feb-22 15:51 37.368562 -121.929431 47 44ft 0kts
02-Feb-22 15:52 37.368485 -121.929584 77 45ft 2kts
02-Feb-22 15:53 37.368612 -121.930014 138 44ft 0kts
02-Feb-22 15:54 37.368612 -121.930014 138 44ft 0kts
02-Feb-22 15:55 37.368612 -121.930014 138 44ft 0kts
02-Feb-22 15:56 37.368505 -121.929904 142 45ft 5kts
02-Feb-22 15:57 37.365482 -121.927109 139 49ft 15kts
02-Feb-22 15:58 37.362049 -121.923328 138 54ft 17kts
02-Feb-22 15:59 37.358316 -121.919243 139 58ft 18kts
02-Feb-22 16:00 37.354268 -121.914782 142 65ft 19kts
02-Feb-22 16:01 37.353080 -121.914477 225 65ft 0kts
02-Feb-22 16:02 37.354641 -121.917852 318 63ft 72kts
02-Feb-22 16:03 37.388094 -121.953492 322 2763ft 184kts
02-Feb-22 16:04 37.441930 -121.964649 40 4904ft 248kts
02-Feb-22 16:05 37.428087 -121.883912 137 6437ft 304kts
02-Feb-22 16:06 37.360004 -121.818251 135 10204ft 316kts
02-Feb-22 16:07 37.288138 -121.741958 130 12847ft 355kts
02-Feb-22 16:08 37.212325 -121.656052 130 15626ft 377kts
02-Feb-22 16:09 37.132358 -121.565675 130 18092ft 397kts
02-Feb-22 16:10 37.061863 -121.461635 92 20293ft 381kts
02-Feb-22 16:11 37.048774 -121.328473 88 22336ft 393kts
02-Feb-22 16:12 37.035222 -121.189541 88 24193ft 409kts
02-Feb-22 16:13 37.021034 -121.046498 88 25939ft 421kts
02-Feb-22 16:14 37.006188 -120.898676 88 27497ft 434kts
02-Feb-22 16:15 36.990665 -120.746194 88 28907ft 447kts
02-Feb-22 16:16 36.974460 -120.588559 88 30135ft 461kts
02-Feb-22 16:17 36.957573 -120.426877 88 31267ft 473kts
02-Feb-22 16:18 36.940033 -120.261326 89 32301ft 484kts
02-Feb-22 16:19 36.921920 -120.092634 89 33295ft 492kts
02-Feb-22 16:20 36.904986 -119.923104 80 34538ft 481kts
02-Feb-22 16:21 36.938821 -119.770412 56 35604ft 448kts
02-Feb-22 16:22 36.985883 -119.626466 56 36804ft 444kts
02-Feb-22 16:23 37.032359 -119.483495 56 37808ft 441kts
02-Feb-22 16:24 37.078752 -119.340089 57 38604ft 441kts
02-Feb-22 16:25 37.124657 -119.197491 57 39262ft 438kts
02-Feb-22 16:26 37.170292 -119.055062 57 39283ft 441kts
02-Feb-22 16:27 37.215819 -118.912156 57 39275ft 435kts
02-Feb-22 16:28 37.260526 -118.771242 57 39230ft 432kts
02-Feb-22 16:29 37.284581 -118.618487 74 39228ft 454kts
02-Feb-22 16:30 37.296784 -118.459241 74 39223ft 455kts
02-Feb-22 16:31 37.308782 -118.299900 74 39261ft 457kts
02-Feb-22 16:32 37.320607 -118.139824 74 39270ft 458kts
02-Feb-22 16:33 37.332241 -117.979346 74 39279ft 460kts
02-Feb-22 16:34 37.343709 -117.818065 74 39289ft 461kts
02-Feb-22 16:35 37.354870 -117.657894 74 39279ft 461kts
02-Feb-22 16:36 37.365942 -117.496197 74 39264ft 461kts
02-Feb-22 16:37 37.375193 -117.334341 83 39258ft 472kts
02-Feb-22 16:38 37.318879 -117.177985 126 39261ft 519kts
02-Feb-22 16:39 37.222589 -117.044232 126 38349ft 512kts
02-Feb-22 16:40 37.127206 -116.912064 126 37408ft 507kts
02-Feb-22 16:41 37.015606 -116.802158 143 35648ft 512kts
02-Feb-22 16:42 36.896931 -116.700440 143 33075ft 517kts
02-Feb-22 16:43 36.779705 -116.600252 143 31033ft 503kts
02-Feb-22 16:44 36.665515 -116.502800 139 28991ft 488kts
02-Feb-22 16:45 36.574744 -116.382948 125 26938ft 466kts
02-Feb-22 16:46 36.489525 -116.262688 126 24873ft 451kts
02-Feb-22 16:47 36.407576 -116.147484 126 22857ft 435kts
02-Feb-22 16:48 36.328756 -116.037046 126 20827ft 419kts
02-Feb-22 16:49 36.252782 -115.930866 124 19289ft 383kts
02-Feb-22 16:50 36.190883 -115.833093 121 17728ft 348kts
02-Feb-22 16:51 36.126502 -115.744602 149 16128ft 349kts
02-Feb-22 16:52 36.033673 -115.707681 158 14579ft 342kts
02-Feb-22 16:53 35.944273 -115.671872 158 12614ft 329kts
02-Feb-22 16:54 35.857617 -115.636688 157 11328ft 317kts
02-Feb-22 16:55 35.794018 -115.570331 123 10558ft 299kts
02-Feb-22 16:56 35.754822 -115.484665 85 9541ft 278kts
02-Feb-22 16:57 35.764680 -115.394968 41 8289ft 244kts
02-Feb-22 16:58 35.811081 -115.344741 38 7981ft 203kts
02-Feb-22 16:59 35.854657 -115.298827 32 7049ft 205kts
02-Feb-22 17:00 35.905418 -115.267693 24 6259ft 191kts
02-Feb-22 17:01 35.951277 -115.241429 24 5278ft 166kts
02-Feb-22 17:02 35.988053 -115.220393 24 4360ft 125kts
02-Feb-22 17:03 36.018983 -115.202552 24 3596ft 124kts
02-Feb-22 17:04 36.050045 -115.184810 21 2880ft 124kts
02-Feb-22 17:05 36.081537 -115.166623 17 2164ft 113kts
02-Feb-22 17:06 36.093881 -115.158527 100 2105ft 21kts
02-Feb-22 17:07 36.093703 -115.157866 117 2104ft 8kts
02-Feb-22 17:08 36.092156 -115.155602 122 2100ft 6kts
02-Feb-22 17:09 36.088032 -115.157288 208 2117ft 17kts
02-Feb-22 17:10 36.084912 -115.155742 89 2119ft 10kts
02-Feb-22 17:11 36.085048 -115.154826 73 2115ft 0kts
02-Feb-22 17:12 36.085048 -115.154826 73 2115ft 0kts
02-Feb-22 17:13 36.078719 -115.168387 20 2206ft 118kts
02-Feb-22 17:14 36.085048 -115.154826 73 2115ft 0kts
02-Feb-22 17:15 36.085048 -115.154826 73 2115ft 0kts

Navigation Log

Ident Type
Flight plan parsing failed, navigation log unavailable